createdAt,value
2018-12-22T00:01:57.041Z,2.90
2018-12-22T00:04:02.885Z,2.10
2018-12-22T00:06:09.514Z,2.07
2018-12-22T00:08:16.894Z,3.87
2018-12-22T00:10:22.925Z,2.70
2018-12-22T00:12:29.931Z,3.13
2018-12-22T00:14:36.302Z,3.07
2018-12-22T00:16:43.141Z,3.33
2018-12-22T00:18:49.117Z,3.00
2018-12-22T00:20:56.073Z,4.70
2018-12-22T00:23:03.046Z,3.50
2018-12-22T00:25:15.258Z,3.17
2018-12-22T00:27:19.617Z,3.47
2018-12-22T00:29:24.019Z,3.67
2018-12-22T00:31:29.051Z,3.53
2018-12-22T00:33:34.941Z,4.60
2018-12-22T00:35:40.229Z,4.37
2018-12-22T00:37:46.043Z,3.53
2018-12-22T00:39:52.314Z,4.27
2018-12-22T00:41:59.653Z,3.43
2018-12-22T00:44:07.025Z,4.70
2018-12-22T00:46:13.350Z,3.90
2018-12-22T00:48:20.221Z,4.13
2018-12-22T00:50:26.771Z,9.37
2018-12-22T00:52:34.800Z,3.43
2018-12-22T00:54:41.157Z,4.50
2018-12-22T00:56:48.838Z,4.27
2018-12-22T00:58:55.785Z,5.83
2018-12-22T01:01:03.145Z,4.50
2018-12-22T01:03:09.222Z,4.63
2018-12-22T01:05:16.233Z,5.00
2018-12-22T01:07:22.258Z,5.13
2018-12-22T01:09:27.531Z,5.37
2018-12-22T01:11:34.017Z,4.57
2018-12-22T01:13:38.175Z,4.53
2018-12-22T01:15:45.641Z,4.83
2018-12-22T01:17:52.358Z,4.57
2018-12-22T01:19:59.210Z,4.37
2018-12-22T01:22:04.501Z,4.03
2018-12-22T01:24:12.149Z,4.60
2018-12-22T01:26:19.685Z,3.13
2018-12-22T01:28:25.990Z,4.90
2018-12-22T01:30:33.223Z,5.43
2018-12-22T01:32:41.166Z,3.93
2018-12-22T01:34:48.486Z,3.50
2018-12-22T01:36:55.162Z,4.80
2018-12-22T01:38:59.434Z,4.90
2018-12-22T01:41:05.541Z,6.03
2018-12-22T01:43:13.321Z,5.77
2018-12-22T01:45:20.357Z,4.90
2018-12-22T01:47:27.399Z,7.80
2018-12-22T01:49:33.428Z,4.77
2018-12-22T01:51:40.907Z,6.13
2018-12-22T01:53:47.273Z,5.03
2018-12-22T01:55:52.619Z,7.70
2018-12-22T01:57:59.370Z,7.17
2018-12-22T02:00:06.251Z,8.47
2018-12-22T02:02:12.128Z,5.80
2018-12-22T02:04:19.269Z,6.13
2018-12-22T02:06:25.714Z,6.53
2018-12-22T02:08:30.552Z,5.77
2018-12-22T02:10:35.638Z,5.03
2018-12-22T02:12:41.514Z,5.60
2018-12-22T02:14:48.509Z,6.47
2018-12-22T02:16:54.774Z,6.73
2018-12-22T02:19:00.873Z,4.93
2018-12-22T02:21:06.815Z,5.17
2018-12-22T02:23:13.126Z,6.90
2018-12-22T02:25:20.620Z,5.93
2018-12-22T02:27:27.238Z,5.40
2018-12-22T02:29:33.193Z,6.40
2018-12-22T02:31:39.880Z,6.60
2018-12-22T02:33:45.586Z,7.57
2018-12-22T02:35:52.067Z,8.10
2018-12-22T02:37:56.744Z,6.53
2018-12-22T02:40:02.917Z,7.13
2018-12-22T02:42:08.870Z,5.90
2018-12-22T02:44:14.001Z,7.10
2018-12-22T02:46:19.352Z,4.70
2018-12-22T02:48:24.785Z,6.30
2018-12-22T02:50:30.753Z,6.40
2018-12-22T02:52:38.122Z,6.03
2018-12-22T02:54:43.832Z,6.57
2018-12-22T02:56:50.067Z,5.73
2018-12-22T02:59:05.760Z,6.43
2018-12-22T03:01:08.549Z,5.50
2018-12-22T03:03:15.405Z,6.77
2018-12-22T03:05:21.422Z,6.40
2018-12-22T03:07:25.950Z,5.17
2018-12-22T03:09:30.061Z,6.37
2018-12-22T03:11:35.630Z,6.07
2018-12-22T03:13:41.790Z,5.60
2018-12-22T03:15:51.729Z,5.47
2018-12-22T03:17:57.688Z,5.47
2018-12-22T03:20:03.134Z,4.93
2018-12-22T03:22:13.500Z,5.73
2018-12-22T03:24:20.099Z,5.77
2018-12-22T03:26:24.331Z,6.13
2018-12-22T03:28:35.829Z,6.80
2018-12-22T03:30:41.931Z,5.80
2018-12-22T03:32:49.805Z,7.17
2018-12-22T03:34:56.614Z,5.13
2018-12-22T03:37:02.983Z,6.07
2018-12-22T03:39:14.282Z,5.87
2018-12-22T03:41:20.677Z,4.70
2018-12-22T03:43:27.621Z,5.87
2018-12-22T03:45:32.738Z,6.73
2018-12-22T03:47:40.479Z,6.77
2018-12-22T03:49:45.936Z,7.73
2018-12-22T03:51:50.205Z,7.43
2018-12-22T03:53:56.675Z,6.77
2018-12-22T03:56:03.133Z,7.17
2018-12-22T03:58:10.090Z,6.57
2018-12-22T04:00:16.497Z,6.23
2018-12-22T04:02:22.163Z,8.27
2018-12-22T04:04:27.910Z,8.10
2018-12-22T04:06:32.037Z,6.37
2018-12-22T04:08:36.113Z,6.73
2018-12-22T04:10:42.296Z,7.20
2018-12-22T04:12:48.351Z,7.00
2018-12-22T04:14:55.259Z,7.10
2018-12-22T04:17:00.893Z,6.40
2018-12-22T04:19:05.209Z,6.80
2018-12-22T04:21:11.459Z,6.87
2018-12-22T04:23:17.356Z,6.23
2018-12-22T04:25:23.005Z,8.07
2018-12-22T04:27:29.358Z,7.70
2018-12-22T04:29:36.328Z,7.57
2018-12-22T04:31:43.049Z,8.13
2018-12-22T04:33:49.583Z,6.17
2018-12-22T04:35:55.974Z,8.33
2018-12-22T04:38:02.798Z,8.37
2018-12-22T04:40:09.894Z,8.20
2018-12-22T04:42:16.994Z,7.40
2018-12-22T04:44:22.957Z,7.23
2018-12-22T04:46:29.258Z,10.27
2018-12-22T04:48:36.142Z,8.23
2018-12-22T04:50:43.113Z,7.70
2018-12-22T04:52:49.698Z,4.17
2018-12-22T04:54:56.230Z,8.47
2018-12-22T04:57:03.134Z,7.67
2018-12-22T04:59:08.401Z,7.33
2018-12-22T05:01:16.325Z,6.80
2018-12-22T05:03:22.498Z,8.13
2018-12-22T05:05:29.130Z,9.03
2018-12-22T05:07:35.461Z,6.67
2018-12-22T05:09:42.418Z,10.07
2018-12-22T05:11:49.330Z,9.87
2018-12-22T05:13:55.433Z,9.40
2018-12-22T05:16:02.632Z,9.90
2018-12-22T05:18:08.744Z,9.90
2018-12-22T05:20:15.553Z,9.20
2018-12-22T05:22:22.659Z,8.10
2018-12-22T05:24:28.774Z,7.70
2018-12-22T05:26:35.213Z,7.87
2018-12-22T05:28:42.510Z,7.83
2018-12-22T05:30:48.353Z,9.57
2018-12-22T05:32:55.843Z,9.43
2018-12-22T05:35:03.473Z,10.10
2018-12-22T05:37:09.671Z,10.77
2018-12-22T05:39:16.810Z,9.37
2018-12-22T05:41:23.457Z,10.20
2018-12-22T05:43:29.930Z,10.17
2018-12-22T05:45:37.446Z,8.57
2018-12-22T05:47:44.873Z,10.43
2018-12-22T05:49:52.624Z,10.03
2018-12-22T05:52:03.450Z,8.10
2018-12-22T05:54:10.602Z,10.47
2018-12-22T05:56:17.708Z,10.87
2018-12-22T05:58:22.762Z,12.00
2018-12-22T06:00:33.117Z,9.77
2018-12-22T06:02:38.978Z,8.97
2018-12-22T06:04:45.926Z,9.13
2018-12-22T06:06:50.666Z,10.50
2018-12-22T06:08:55.015Z,9.87
2018-12-22T06:10:59.849Z,9.07
2018-12-22T06:13:06.650Z,8.77
2018-12-22T06:15:13.933Z,10.20
2018-12-22T06:17:20.309Z,11.90
2018-12-22T06:19:26.215Z,10.27
2018-12-22T06:21:32.561Z,9.87
2018-12-22T06:23:40.102Z,8.57
2018-12-22T06:25:46.988Z,9.77
2018-12-22T06:27:52.958Z,9.57
2018-12-22T06:30:08.777Z,9.87
2018-12-22T06:32:09.566Z,8.47
2018-12-22T06:34:17.648Z,9.70
2018-12-22T06:36:26.721Z,7.67
2018-12-22T06:38:33.650Z,9.23
2018-12-22T06:40:40.598Z,8.97
2018-12-22T06:42:48.652Z,8.73
2018-12-22T06:44:55.915Z,10.00
2018-12-22T06:47:03.462Z,9.80
2018-12-22T06:49:10.368Z,8.47
2018-12-22T06:51:16.432Z,10.47
2018-12-22T06:53:22.822Z,7.80
2018-12-22T06:55:29.517Z,9.53
2018-12-22T06:57:36.538Z,11.37
2018-12-22T06:59:42.862Z,10.30
2018-12-22T07:01:49.148Z,10.80
2018-12-22T07:03:54.417Z,10.77
2018-12-22T07:06:00.917Z,9.20
2018-12-22T07:08:07.990Z,10.40
2018-12-22T07:10:14.435Z,8.93
2018-12-22T07:12:21.806Z,11.03
2018-12-22T07:14:29.102Z,10.33
2018-12-22T07:16:35.718Z,12.30
2018-12-22T07:18:41.687Z,11.97
2018-12-22T07:20:48.094Z,9.77
2018-12-22T07:22:53.698Z,10.80
2018-12-22T07:25:00.797Z,11.23
2018-12-22T07:27:08.105Z,9.80
2018-12-22T07:29:14.994Z,11.37
2018-12-22T07:31:20.798Z,10.97
2018-12-22T07:33:26.406Z,11.37
2018-12-22T07:35:33.831Z,10.23
2018-12-22T07:37:40.308Z,10.67
2018-12-22T07:39:48.039Z,11.87
2018-12-22T07:41:54.230Z,12.73
2018-12-22T07:44:01.126Z,13.93
2018-12-22T07:46:06.892Z,12.20
2018-12-22T07:48:12.285Z,12.07
2018-12-22T07:50:20.201Z,10.90
2018-12-22T07:52:29.956Z,11.53
2018-12-22T07:54:34.662Z,12.93
2018-12-22T07:56:39.870Z,9.37
2018-12-22T07:58:46.514Z,10.77
2018-12-22T08:00:51.574Z,11.07
2018-12-22T08:02:56.555Z,10.57
2018-12-22T08:05:03.180Z,10.00
2018-12-22T08:07:11.321Z,9.27
2018-12-22T08:09:19.258Z,9.00
2018-12-22T08:11:25.254Z,10.37
2018-12-22T08:13:32.491Z,10.53
2018-12-22T08:15:39.085Z,11.73
2018-12-22T08:17:44.972Z,11.07
2018-12-22T08:19:51.529Z,11.43
2018-12-22T08:21:58.534Z,9.77
2018-12-22T08:24:04.711Z,9.77
2018-12-22T08:26:11.106Z,10.97
2018-12-22T08:28:17.009Z,12.73
2018-12-22T08:30:22.406Z,10.83
2018-12-22T08:32:29.777Z,10.90
2018-12-22T08:34:35.622Z,12.20
2018-12-22T08:36:43.593Z,10.37
2018-12-22T08:38:49.509Z,9.93
2018-12-22T08:40:55.410Z,9.53
2018-12-22T08:43:02.672Z,9.67
2018-12-22T08:45:09.581Z,10.07
2018-12-22T08:47:15.640Z,11.20
2018-12-22T08:49:23.114Z,11.57
2018-12-22T08:51:29.767Z,10.63
2018-12-22T08:53:36.565Z,9.70
2018-12-22T08:55:47.503Z,12.00
2018-12-22T08:57:53.830Z,11.60
2018-12-22T09:00:01.307Z,11.77
2018-12-22T09:02:07.677Z,11.17
2018-12-22T09:04:13.822Z,13.30
2018-12-22T09:06:20.090Z,11.30
2018-12-22T09:08:26.886Z,11.97
2018-12-22T09:10:33.518Z,10.43
2018-12-22T09:12:38.738Z,12.73
2018-12-22T09:14:43.858Z,13.00
2018-12-22T09:16:49.769Z,12.63
2018-12-22T09:18:57.866Z,10.90
2018-12-22T09:21:05.930Z,11.10
2018-12-22T09:23:13.695Z,11.43
2018-12-22T09:25:19.249Z,10.93
2018-12-22T09:27:25.450Z,12.37
2018-12-22T09:29:31.570Z,11.63
2018-12-22T09:31:37.224Z,11.17
2018-12-22T09:33:43.605Z,9.37
2018-12-22T09:35:49.850Z,9.07
2018-12-22T09:37:57.386Z,10.27
2018-12-22T09:40:03.658Z,11.20
2018-12-22T09:42:14.276Z,8.80
2018-12-22T09:44:20.253Z,9.43
2018-12-22T09:46:27.978Z,9.17
2018-12-22T09:48:34.888Z,9.60
2018-12-22T09:50:42.241Z,8.83
2018-12-22T09:52:49.348Z,9.10
2018-12-22T09:54:55.919Z,10.03
2018-12-22T09:57:03.366Z,10.47
2018-12-22T09:59:07.794Z,10.83
2018-12-22T10:01:12.088Z,12.53
2018-12-22T10:03:17.041Z,10.63
2018-12-22T10:05:25.293Z,11.50
2018-12-22T10:07:32.419Z,7.70
2018-12-22T10:09:39.493Z,9.23
2018-12-22T10:11:46.048Z,9.57
2018-12-22T10:13:55.718Z,9.13
2018-12-22T10:16:02.014Z,10.37
2018-12-22T10:18:09.006Z,10.13
2018-12-22T10:20:15.509Z,10.93
2018-12-22T10:22:21.429Z,11.07
2018-12-22T10:24:27.266Z,9.80
2018-12-22T10:26:33.146Z,8.40
2018-12-22T10:28:37.181Z,9.20
2018-12-22T10:30:43.178Z,10.43
2018-12-22T10:32:50.956Z,10.37
2018-12-22T10:35:01.878Z,9.17
2018-12-22T10:37:08.498Z,8.97
2018-12-22T10:39:14.129Z,8.73
2018-12-22T10:41:22.501Z,8.83
2018-12-22T10:43:27.589Z,11.40
2018-12-22T10:45:33.607Z,9.07
2018-12-22T10:47:40.428Z,8.80
2018-12-22T10:49:45.784Z,9.60
2018-12-22T10:51:51.746Z,10.70
2018-12-22T10:53:58.653Z,9.03
2018-12-22T10:56:03.359Z,10.60
2018-12-22T10:58:11.334Z,10.57
2018-12-22T11:00:19.366Z,10.03
2018-12-22T11:02:26.045Z,10.53
2018-12-22T11:04:33.673Z,11.77
2018-12-22T11:06:39.696Z,10.70
2018-12-22T11:08:46.298Z,12.13
2018-12-22T11:10:51.882Z,11.80
2018-12-22T11:13:01.137Z,11.17
2018-12-22T11:15:07.852Z,10.53
2018-12-22T11:17:14.505Z,11.83
2018-12-22T11:19:21.899Z,8.73
2018-12-22T11:21:29.643Z,12.80
2018-12-22T11:23:40.361Z,11.17
2018-12-22T11:25:46.988Z,10.50
2018-12-22T11:27:54.597Z,10.93
2018-12-22T11:30:01.797Z,11.63
2018-12-22T11:32:10.546Z,10.47
2018-12-22T11:34:17.777Z,10.87
2018-12-22T11:36:24.619Z,12.50
2018-12-22T11:38:30.732Z,10.47
2018-12-22T11:40:37.026Z,12.37
2018-12-22T11:42:47.598Z,11.63
2018-12-22T11:44:50.571Z,10.43
2018-12-22T11:46:57.765Z,12.10
2018-12-22T11:49:15.014Z,11.73
2018-12-22T11:51:23.402Z,11.80
2018-12-22T11:53:28.467Z,10.70
2018-12-22T11:55:32.970Z,11.10
2018-12-22T11:57:39.641Z,13.27
2018-12-22T11:59:46.729Z,9.97
2018-12-22T12:01:53.577Z,12.23
2018-12-22T12:04:00.881Z,14.90
2018-12-22T12:06:07.888Z,10.23
2018-12-22T12:08:14.521Z,13.87
2018-12-22T12:10:21.632Z,13.23
2018-12-22T12:12:28.427Z,12.57
2018-12-22T12:14:34.103Z,14.13
2018-12-22T12:17:00.895Z,12.83
2018-12-22T12:19:14.901Z,13.43
2018-12-22T12:21:21.515Z,14.13
2018-12-22T12:23:28.558Z,13.57
2018-12-22T12:25:36.083Z,13.37
2018-12-22T12:27:43.682Z,11.60
2018-12-22T12:29:49.969Z,11.60
2018-12-22T12:31:56.958Z,12.13
2018-12-22T12:34:03.363Z,14.33
2018-12-22T12:36:08.942Z,13.93
2018-12-22T12:38:13.182Z,14.67
2018-12-22T12:40:19.722Z,13.20
2018-12-22T12:42:26.990Z,13.20
2018-12-22T12:44:32.597Z,13.97
2018-12-22T12:46:43.945Z,14.30
2018-12-22T12:48:50.851Z,13.17
2018-12-22T12:50:58.059Z,15.27
2018-12-22T12:53:09.605Z,13.17
2018-12-22T12:55:13.378Z,15.33
2018-12-22T12:57:19.723Z,12.73
2018-12-22T12:59:26.886Z,14.83
2018-12-22T13:01:35.466Z,15.33
2018-12-22T13:03:42.972Z,11.67
2018-12-22T13:05:49.865Z,11.83
2018-12-22T13:07:55.237Z,14.63
2018-12-22T13:10:01.066Z,16.73
2018-12-22T13:12:14.073Z,13.43
2018-12-22T13:14:23.821Z,12.90
2018-12-22T13:16:30.953Z,15.87
2018-12-22T13:18:38.817Z,15.60
2018-12-22T13:20:46.122Z,16.57
2018-12-22T13:22:52.726Z,15.03
2018-12-22T13:24:58.314Z,15.63
2018-12-22T13:27:02.341Z,12.17
2018-12-22T13:29:06.211Z,13.23
2018-12-22T13:31:12.823Z,13.07
2018-12-22T13:33:19.640Z,15.13
2018-12-22T13:35:24.222Z,15.90
2018-12-22T13:37:28.829Z,15.77
2018-12-22T13:39:35.338Z,18.27
2018-12-22T13:41:42.314Z,16.50
2018-12-22T13:43:46.422Z,15.17
2018-12-22T13:45:51.293Z,14.83
2018-12-22T13:47:59.313Z,13.20
2018-12-22T13:50:06.314Z,16.57
2018-12-22T13:52:14.117Z,17.83
2018-12-22T13:54:25.010Z,18.00
2018-12-22T13:56:33.101Z,17.73
2018-12-22T13:58:39.357Z,18.40
2018-12-22T14:00:47.068Z,18.20
2018-12-22T14:02:53.370Z,18.33
2018-12-22T14:05:00.238Z,16.33
2018-12-22T14:07:09.514Z,16.67
2018-12-22T14:09:16.330Z,16.30
2018-12-22T14:11:22.503Z,16.13
2018-12-22T14:13:29.201Z,19.43
2018-12-22T14:15:36.594Z,19.53
2018-12-22T14:17:51.434Z,18.07
2018-12-22T14:20:00.427Z,17.93
2018-12-22T14:22:07.214Z,18.80
2018-12-22T14:24:23.873Z,18.43
2018-12-22T14:26:31.722Z,20.03
2018-12-22T14:28:39.178Z,18.07
2018-12-22T14:30:46.808Z,16.47
2018-12-22T14:32:53.168Z,18.60
2018-12-22T14:35:03.817Z,16.90
2018-12-22T14:37:10.869Z,19.53
2018-12-22T14:39:20.564Z,16.33
2018-12-22T14:41:29.911Z,19.80
2018-12-22T14:43:36.457Z,17.50
2018-12-22T14:45:43.022Z,19.30
2018-12-22T14:47:49.421Z,20.33
2018-12-22T14:49:54.868Z,19.50
2018-12-22T14:52:02.436Z,17.90
2018-12-22T14:54:11.466Z,18.03
2018-12-22T14:56:18.568Z,18.60
2018-12-22T14:58:27.530Z,16.33
2018-12-22T15:00:33.066Z,22.23
2018-12-22T15:02:38.828Z,16.60
2018-12-22T15:04:45.199Z,17.30
2018-12-22T15:06:51.972Z,19.13
2018-12-22T15:08:59.441Z,20.50
2018-12-22T15:11:06.030Z,17.07
2018-12-22T15:13:13.196Z,18.93
2018-12-22T15:15:18.865Z,19.20
2018-12-22T15:17:26.186Z,19.67
2018-12-22T15:19:32.525Z,18.23
2018-12-22T15:21:38.742Z,21.03
2018-12-22T15:23:44.714Z,17.27
2018-12-22T15:25:50.778Z,20.13
2018-12-22T15:27:56.653Z,17.60
2018-12-22T15:30:02.994Z,20.83
2018-12-22T15:32:09.586Z,19.07
2018-12-22T15:34:15.526Z,17.73
2018-12-22T15:36:19.929Z,18.10
2018-12-22T15:38:24.346Z,26.67
2018-12-22T15:40:29.190Z,18.87
2018-12-22T15:42:35.978Z,17.90
2018-12-22T15:44:42.690Z,20.90
2018-12-22T15:46:48.939Z,20.37
2018-12-22T15:48:53.705Z,18.93
2018-12-22T15:50:57.914Z,19.03
2018-12-22T15:53:04.161Z,20.73
2018-12-22T15:55:11.626Z,20.17
2018-12-22T15:57:18.810Z,20.17
2018-12-22T15:59:28.745Z,18.23
2018-12-22T16:01:34.674Z,21.97
2018-12-22T16:03:41.660Z,18.97
2018-12-22T16:05:48.941Z,22.87
2018-12-22T16:07:54.219Z,21.67
2018-12-22T16:10:00.520Z,21.83
2018-12-22T16:12:05.345Z,19.73
2018-12-22T16:14:12.046Z,19.17
2018-12-22T16:16:18.333Z,18.90
2018-12-22T16:18:25.609Z,23.67
2018-12-22T16:20:32.832Z,20.77
2018-12-22T16:22:39.161Z,21.40
2018-12-22T16:24:45.770Z,21.57
2018-12-22T16:26:52.793Z,23.53
2018-12-22T16:29:05.454Z,21.40
2018-12-22T16:31:10.382Z,22.10
2018-12-22T16:33:14.421Z,23.83
2018-12-22T16:35:21.194Z,22.27
2018-12-22T16:37:28.353Z,22.23
2018-12-22T16:39:34.074Z,23.13
2018-12-22T16:41:41.481Z,19.07
2018-12-22T16:43:46.953Z,20.20
2018-12-22T16:45:52.438Z,21.87
2018-12-22T16:47:58.157Z,20.77
2018-12-22T16:50:04.548Z,19.40
2018-12-22T16:52:10.910Z,23.77
2018-12-22T16:54:17.915Z,21.47
2018-12-22T16:56:23.890Z,18.87
2018-12-22T16:58:33.418Z,21.10
2018-12-22T17:00:44.126Z,19.43
2018-12-22T17:03:11.241Z,22.80
2018-12-22T17:05:18.275Z,20.73
2018-12-22T17:07:23.487Z,21.63
2018-12-22T17:09:29.967Z,19.23
2018-12-22T17:11:37.278Z,20.33
2018-12-22T17:13:44.074Z,21.73
2018-12-22T17:15:53.590Z,21.60
2018-12-22T17:18:00.907Z,21.47
2018-12-22T17:20:07.339Z,23.40
2018-12-22T17:22:22.739Z,21.13
2018-12-22T17:24:47.150Z,21.07
2018-12-22T17:26:54.064Z,22.13
2018-12-22T17:29:02.098Z,21.37
2018-12-22T17:31:09.102Z,19.77
2018-12-22T17:33:19.075Z,21.57
2018-12-22T17:35:24.269Z,21.83
2018-12-22T17:37:31.565Z,22.30
2018-12-22T17:39:36.861Z,19.27
2018-12-22T17:41:43.883Z,22.17
2018-12-22T17:43:56.317Z,21.07
2018-12-22T17:46:03.190Z,23.00
2018-12-22T17:48:10.507Z,21.03
2018-12-22T17:50:17.422Z,24.23
2018-12-22T17:52:24.022Z,24.10
2018-12-22T17:54:35.754Z,24.03
2018-12-22T17:56:44.650Z,22.10
2018-12-22T17:58:49.249Z,23.00
2018-12-22T18:00:54.232Z,21.80
2018-12-22T18:03:02.094Z,19.87
2018-12-22T18:05:09.305Z,24.07
2018-12-22T18:07:14.731Z,25.40
2018-12-22T18:09:22.418Z,26.03
2018-12-22T18:11:29.514Z,24.13
2018-12-22T18:13:36.814Z,26.73
2018-12-22T18:15:42.894Z,26.67
2018-12-22T18:17:48.977Z,24.37
2018-12-22T18:19:57.259Z,25.77
2018-12-22T18:22:04.262Z,24.63
2018-12-22T18:24:10.062Z,21.73
2018-12-22T18:26:15.789Z,20.07
2018-12-22T18:28:22.348Z,21.13
2018-12-22T18:30:30.271Z,24.57
2018-12-22T18:32:35.893Z,24.70
2018-12-22T18:34:42.905Z,24.00
2018-12-22T18:36:49.335Z,24.27
2018-12-22T18:38:54.977Z,25.13
2018-12-22T18:41:04.585Z,23.43
2018-12-22T18:43:09.132Z,23.43
2018-12-22T18:45:13.285Z,22.53
2018-12-22T18:47:18.515Z,21.87
2018-12-22T18:49:24.018Z,22.43
2018-12-22T18:51:32.973Z,26.40
2018-12-22T18:53:42.077Z,24.67
2018-12-22T18:55:48.142Z,21.70
2018-12-22T18:57:57.770Z,25.63
2018-12-22T19:00:04.494Z,22.00
2018-12-22T19:02:12.716Z,25.70
2018-12-22T19:04:19.731Z,26.30
2018-12-22T19:06:24.390Z,26.20
2018-12-22T19:08:32.138Z,27.37
2018-12-22T19:10:45.282Z,26.60
2018-12-22T19:12:52.029Z,25.07
2018-12-22T19:14:57.242Z,23.70
2018-12-22T19:17:02.420Z,24.33
2018-12-22T19:19:07.234Z,28.00
2018-12-22T19:21:13.538Z,27.60
2018-12-22T19:23:21.450Z,24.93
2018-12-22T19:25:28.333Z,26.87
2018-12-22T19:27:35.241Z,25.97
2018-12-22T19:29:41.478Z,29.80
2018-12-22T19:31:48.027Z,22.77
2018-12-22T19:33:54.698Z,24.50
2018-12-22T19:36:00.841Z,26.20
2018-12-22T19:38:10.190Z,26.50
2018-12-22T19:40:17.262Z,26.50
2018-12-22T19:42:22.477Z,31.33
2018-12-22T19:44:29.576Z,26.13
2018-12-22T19:46:36.390Z,28.67
2018-12-22T19:48:42.426Z,23.23
2018-12-22T19:50:47.962Z,24.57
2018-12-22T19:52:54.159Z,25.20
2018-12-22T19:55:00.331Z,23.03
2018-12-22T19:57:06.357Z,25.67
2018-12-22T19:59:13.210Z,23.67
2018-12-22T20:01:20.342Z,23.67
2018-12-22T20:03:26.708Z,22.07
2018-12-22T20:05:33.323Z,21.57
2018-12-22T20:07:40.844Z,21.03
2018-12-22T20:09:47.441Z,22.03
2018-12-22T20:11:53.373Z,20.97
2018-12-22T20:13:59.727Z,26.80
2018-12-22T20:16:09.055Z,22.70
2018-12-22T20:18:14.543Z,23.97
2018-12-22T20:20:22.225Z,23.97
2018-12-22T20:22:30.701Z,38.93
2018-12-22T20:24:37.785Z,26.13
2018-12-22T20:26:44.023Z,23.80
2018-12-22T20:28:50.433Z,24.97
2018-12-22T20:30:56.578Z,24.60
2018-12-22T20:33:04.553Z,25.70
2018-12-22T20:35:11.122Z,26.27
2018-12-22T20:37:17.326Z,24.00
2018-12-22T20:39:23.646Z,26.17
2018-12-22T20:41:30.442Z,25.50
2018-12-22T20:43:34.953Z,29.43
2018-12-22T20:45:38.892Z,26.37
2018-12-22T20:47:43.886Z,26.13
2018-12-22T20:49:49.933Z,30.13
2018-12-22T20:51:55.814Z,31.43
2018-12-22T20:54:03.372Z,44.33
2018-12-22T20:56:09.771Z,46.33
2018-12-22T20:58:15.500Z,39.10
2018-12-22T21:00:22.474Z,46.93
2018-12-22T21:02:28.783Z,40.50
2018-12-22T21:04:35.289Z,38.97
2018-12-22T21:06:40.902Z,44.33
2018-12-22T21:08:47.117Z,42.37
2018-12-22T21:10:53.883Z,48.13
2018-12-22T21:12:59.708Z,46.17
2018-12-22T21:15:05.720Z,47.93
2018-12-22T21:17:12.731Z,36.93
2018-12-22T21:19:20.617Z,29.80
2018-12-22T21:21:26.883Z,27.10
2018-12-22T21:23:32.606Z,28.87
2018-12-22T21:25:39.377Z,26.63
2018-12-22T21:27:45.170Z,25.40
2018-12-22T21:29:51.990Z,26.60
2018-12-22T21:31:57.235Z,25.63
2018-12-22T21:34:03.566Z,26.53
2018-12-22T21:36:10.891Z,29.27
2018-12-22T21:38:16.937Z,22.73
2018-12-22T21:40:24.105Z,27.23
2018-12-22T21:42:29.939Z,29.23
2018-12-22T21:44:34.687Z,25.47
2018-12-22T21:46:39.914Z,26.23
2018-12-22T21:48:44.321Z,26.90
2018-12-22T21:50:49.513Z,29.20
2018-12-22T21:52:59.682Z,25.80
2018-12-22T21:55:07.644Z,27.60
2018-12-22T21:57:18.475Z,27.97
2018-12-22T21:59:24.986Z,28.13
2018-12-22T22:01:32.108Z,30.60
2018-12-22T22:03:39.070Z,29.40
2018-12-22T22:05:45.977Z,24.50
2018-12-22T22:07:52.614Z,27.77
2018-12-22T22:09:57.946Z,27.17
2018-12-22T22:12:04.365Z,25.83
2018-12-22T22:14:11.979Z,24.53
2018-12-22T22:16:18.637Z,28.60
2018-12-22T22:18:25.137Z,27.43
2018-12-22T22:20:32.597Z,30.63
2018-12-22T22:22:46.496Z,27.87
2018-12-22T22:24:53.438Z,30.07
2018-12-22T22:27:00.077Z,29.03
2018-12-22T22:29:07.471Z,29.17
2018-12-22T22:31:13.158Z,29.03
2018-12-22T22:33:19.333Z,31.10
2018-12-22T22:35:24.434Z,28.63
2018-12-22T22:37:31.054Z,26.63
2018-12-22T22:39:43.068Z,28.57
2018-12-22T22:41:49.228Z,27.30
2018-12-22T22:43:54.328Z,26.63
2018-12-22T22:45:59.405Z,28.03
2018-12-22T22:48:06.090Z,27.80
2018-12-22T22:50:12.558Z,29.80
2018-12-22T22:52:18.475Z,24.87
2018-12-22T22:54:22.743Z,29.13
2018-12-22T22:56:27.536Z,30.77
2018-12-22T22:58:35.456Z,29.17
2018-12-22T23:00:44.554Z,29.00
2018-12-22T23:02:51.086Z,30.87
2018-12-22T23:04:59.414Z,33.37
2018-12-22T23:07:07.051Z,34.37
2018-12-22T23:09:13.334Z,37.30
2018-12-22T23:11:20.515Z,32.73
2018-12-22T23:13:26.334Z,33.17
2018-12-22T23:15:33.422Z,33.07
2018-12-22T23:17:41.769Z,32.57
2018-12-22T23:19:48.003Z,30.23
2018-12-22T23:21:54.605Z,33.73
2018-12-22T23:24:03.108Z,34.17
2018-12-22T23:26:09.838Z,33.47
2018-12-22T23:28:16.270Z,32.80
2018-12-22T23:30:23.370Z,37.40
2018-12-22T23:32:27.818Z,29.63
2018-12-22T23:34:34.575Z,31.87
2018-12-22T23:36:41.543Z,30.27
2018-12-22T23:38:48.106Z,29.13
2018-12-22T23:40:56.769Z,32.73
2018-12-22T23:43:03.657Z,28.80
2018-12-22T23:45:09.554Z,30.13
2018-12-22T23:47:15.353Z,32.30
2018-12-22T23:49:21.321Z,29.33
2018-12-22T23:51:28.894Z,27.90
2018-12-22T23:53:35.241Z,32.97
2018-12-22T23:55:40.686Z,26.17
2018-12-22T23:57:48.302Z,27.23
2018-12-22T23:59:55.791Z,29.50
